sensor_id;sensor_type;location;lat;lon;timestamp;P1;durP1;ratioP1;P2;durP2;ratioP2
5774;SDS011;2913;51.120;6.772;2024-02-26T00:00:03;2.25;;;1.25;;
5774;SDS011;2913;51.120;6.772;2024-02-26T00:02:33;4.95;;;1.50;;
5774;SDS011;2913;51.120;6.772;2024-02-26T00:05:06;8.18;;;1.60;;
5774;SDS011;2913;51.120;6.772;2024-02-26T00:07:33;2.80;;;1.50;;
5774;SDS011;2913;51.120;6.772;2024-02-26T00:10:01;3.60;;;1.52;;
5774;SDS011;2913;51.120;6.772;2024-02-26T00:12:27;3.97;;;2.03;;
5774;SDS011;2913;51.120;6.772;2024-02-26T00:14:55;3.50;;;1.40;;
5774;SDS011;2913;51.120;6.772;2024-02-26T00:17:23;9.02;;;1.52;;
5774;SDS011;2913;51.120;6.772;2024-02-26T00:19:49;4.13;;;1.55;;
5774;SDS011;2913;51.120;6.772;2024-02-26T00:22:15;4.05;;;1.15;;
5774;SDS011;2913;51.120;6.772;2024-02-26T00:24:43;3.08;;;1.15;;
5774;SDS011;2913;51.120;6.772;2024-02-26T00:27:09;2.67;;;1.27;;
5774;SDS011;2913;51.120;6.772;2024-02-26T00:29:34;4.65;;;1.65;;
5774;SDS011;2913;51.120;6.772;2024-02-26T00:32:02;2.53;;;1.40;;
5774;SDS011;2913;51.120;6.772;2024-02-26T00:34:28;6.70;;;1.83;;
5774;SDS011;2913;51.120;6.772;2024-02-26T00:36:54;3.25;;;1.70;;
5774;SDS011;2913;51.120;6.772;2024-02-26T00:39:22;3.45;;;1.30;;
5774;SDS011;2913;51.120;6.772;2024-02-26T00:41:47;3.75;;;1.60;;
5774;SDS011;2913;51.120;6.772;2024-02-26T00:44:13;4.20;;;1.70;;
5774;SDS011;2913;51.120;6.772;2024-02-26T00:46:39;2.40;;;1.80;;
5774;SDS011;2913;51.120;6.772;2024-02-26T00:49:07;7.03;;;1.90;;
5774;SDS011;2913;51.120;6.772;2024-02-26T00:51:32;3.78;;;1.80;;
5774;SDS011;2913;51.120;6.772;2024-02-26T00:53:58;6.68;;;1.90;;
5774;SDS011;2913;51.120;6.772;2024-02-26T00:56:23;3.40;;;1.58;;
5774;SDS011;2913;51.120;6.772;2024-02-26T00:58:52;3.63;;;1.70;;
5774;SDS011;2913;51.120;6.772;2024-02-26T01:01:19;5.57;;;1.55;;
5774;SDS011;2913;51.120;6.772;2024-02-26T01:03:47;3.03;;;1.77;;
5774;SDS011;2913;51.120;6.772;2024-02-26T01:06:13;4.38;;;1.77;;
5774;SDS011;2913;51.120;6.772;2024-02-26T01:08:39;4.55;;;1.77;;
5774;SDS011;2913;51.120;6.772;2024-02-26T01:11:04;4.97;;;1.50;;
5774;SDS011;2913;51.120;6.772;2024-02-26T01:13:30;2.40;;;1.30;;
5774;SDS011;2913;51.120;6.772;2024-02-26T01:15:58;4.63;;;1.48;;
5774;SDS011;2913;51.120;6.772;2024-02-26T01:18:26;2.20;;;1.10;;
5774;SDS011;2913;51.120;6.772;2024-02-26T01:20:54;3.97;;;1.48;;
5774;SDS011;2913;51.120;6.772;2024-02-26T01:23:20;3.45;;;1.20;;
5774;SDS011;2913;51.120;6.772;2024-02-26T01:25:46;1.48;;;0.90;;
5774;SDS011;2913;51.120;6.772;2024-02-26T01:28:12;2.08;;;0.90;;
5774;SDS011;2913;51.120;6.772;2024-02-26T01:30:40;1.90;;;1.00;;
5774;SDS011;2913;51.120;6.772;2024-02-26T01:33:06;1.30;;;1.05;;
5774;SDS011;2913;51.120;6.772;2024-02-26T01:35:32;2.17;;;0.80;;
5774;SDS011;2913;51.120;6.772;2024-02-26T01:37:57;2.63;;;1.10;;
5774;SDS011;2913;51.120;6.772;2024-02-26T01:40:26;2.75;;;0.93;;
5774;SDS011;2913;51.120;6.772;2024-02-26T01:42:52;3.00;;;0.98;;
5774;SDS011;2913;51.120;6.772;2024-02-26T01:45:20;3.38;;;0.77;;
5774;SDS011;2913;51.120;6.772;2024-02-26T01:47:52;2.78;;;1.20;;
5774;SDS011;2913;51.120;6.772;2024-02-26T01:50:21;4.47;;;1.00;;
5774;SDS011;2913;51.120;6.772;2024-02-26T01:52:49;1.98;;;0.80;;
5774;SDS011;2913;51.120;6.772;2024-02-26T01:55:19;0.95;;;0.70;;
5774;SDS011;2913;51.120;6.772;2024-02-26T01:57:47;2.25;;;0.82;;
5774;SDS011;2913;51.120;6.772;2024-02-26T02:00:14;1.88;;;0.90;;
5774;SDS011;2913;51.120;6.772;2024-02-26T02:02:41;1.98;;;1.00;;
5774;SDS011;2913;51.120;6.772;2024-02-26T02:05:12;1.30;;;1.00;;
5774;SDS011;2913;51.120;6.772;2024-02-26T02:07:44;1.50;;;0.70;;
5774;SDS011;2913;51.120;6.772;2024-02-26T02:10:10;2.78;;;1.08;;
5774;SDS011;2913;51.120;6.772;2024-02-26T02:12:36;2.22;;;0.80;;
5774;SDS011;2913;51.120;6.772;2024-02-26T02:15:04;2.25;;;0.80;;
5774;SDS011;2913;51.120;6.772;2024-02-26T02:17:33;6.45;;;0.90;;
5774;SDS011;2913;51.120;6.772;2024-02-26T02:19:59;1.30;;;0.77;;
5774;SDS011;2913;51.120;6.772;2024-02-26T02:22:25;1.40;;;0.85;;
5774;SDS011;2913;51.120;6.772;2024-02-26T02:24:53;1.90;;;0.82;;
5774;SDS011;2913;51.120;6.772;2024-02-26T02:27:19;1.50;;;1.00;;
5774;SDS011;2913;51.120;6.772;2024-02-26T02:29:48;1.10;;;0.80;;
5774;SDS011;2913;51.120;6.772;2024-02-26T02:32:14;1.77;;;0.75;;
5774;SDS011;2913;51.120;6.772;2024-02-26T02:34:41;1.85;;;1.05;;
5774;SDS011;2913;51.120;6.772;2024-02-26T02:37:06;1.83;;;0.90;;
5774;SDS011;2913;51.120;6.772;2024-02-26T02:39:34;3.78;;;0.73;;
5774;SDS011;2913;51.120;6.772;2024-02-26T02:42:00;1.45;;;0.70;;
5774;SDS011;2913;51.120;6.772;2024-02-26T02:44:26;1.35;;;0.70;;
5774;SDS011;2913;51.120;6.772;2024-02-26T02:46:51;4.10;;;0.90;;
5774;SDS011;2913;51.120;6.772;2024-02-26T02:49:18;1.13;;;0.70;;
5774;SDS011;2913;51.120;6.772;2024-02-26T02:51:48;2.10;;;0.70;;
5774;SDS011;2913;51.120;6.772;2024-02-26T02:54:14;2.60;;;1.02;;
5774;SDS011;2913;51.120;6.772;2024-02-26T02:56:39;1.33;;;0.90;;
5774;SDS011;2913;51.120;6.772;2024-02-26T02:59:07;2.03;;;0.88;;
5774;SDS011;2913;51.120;6.772;2024-02-26T03:01:35;1.35;;;0.80;;
5774;SDS011;2913;51.120;6.772;2024-02-26T03:04:01;1.52;;;0.95;;
5774;SDS011;2913;51.120;6.772;2024-02-26T03:06:26;2.63;;;1.05;;
5774;SDS011;2913;51.120;6.772;2024-02-26T03:08:57;1.95;;;0.80;;
5774;SDS011;2913;51.120;6.772;2024-02-26T03:11:26;1.77;;;0.93;;
5774;SDS011;2913;51.120;6.772;2024-02-26T03:13:51;2.05;;;0.88;;
5774;SDS011;2913;51.120;6.772;2024-02-26T03:16:17;2.33;;;1.00;;
5774;SDS011;2913;51.120;6.772;2024-02-26T03:18:43;1.92;;;0.88;;
5774;SDS011;2913;51.120;6.772;2024-02-26T03:21:09;3.03;;;0.70;;
5774;SDS011;2913;51.120;6.772;2024-02-26T03:23:34;1.40;;;0.73;;
5774;SDS011;2913;51.120;6.772;2024-02-26T03:26:04;1.83;;;0.70;;
5774;SDS011;2913;51.120;6.772;2024-02-26T03:28:30;2.13;;;1.20;;
5774;SDS011;2913;51.120;6.772;2024-02-26T03:30:58;2.08;;;1.02;;
5774;SDS011;2913;51.120;6.772;2024-02-26T03:33:24;2.05;;;1.00;;
5774;SDS011;2913;51.120;6.772;2024-02-26T03:35:50;3.38;;;0.95;;
5774;SDS011;2913;51.120;6.772;2024-02-26T03:38:15;1.92;;;0.80;;
5774;SDS011;2913;51.120;6.772;2024-02-26T03:40:41;2.33;;;0.75;;
5774;SDS011;2913;51.120;6.772;2024-02-26T03:43:09;1.75;;;0.95;;
5774;SDS011;2913;51.120;6.772;2024-02-26T03:45:37;1.25;;;0.80;;
5774;SDS011;2913;51.120;6.772;2024-02-26T03:48:03;4.60;;;1.02;;
5774;SDS011;2913;51.120;6.772;2024-02-26T03:50:32;3.38;;;0.90;;
5774;SDS011;2913;51.120;6.772;2024-02-26T03:53:00;2.33;;;1.08;;
5774;SDS011;2913;51.120;6.772;2024-02-26T03:55:25;1.77;;;1.00;;
5774;SDS011;2913;51.120;6.772;2024-02-26T03:57:53;2.22;;;0.95;;
5774;SDS011;2913;51.120;6.772;2024-02-26T04:00:21;2.30;;;0.82;;
5774;SDS011;2913;51.120;6.772;2024-02-26T04:02:47;1.52;;;0.90;;
5774;SDS011;2913;51.120;6.772;2024-02-26T04:05:13;3.88;;;1.13;;
5774;SDS011;2913;51.120;6.772;2024-02-26T04:07:42;2.60;;;1.20;;
5774;SDS011;2913;51.120;6.772;2024-02-26T04:10:11;5.05;;;1.10;;
5774;SDS011;2913;51.120;6.772;2024-02-26T04:12:39;2.90;;;1.17;;
5774;SDS011;2913;51.120;6.772;2024-02-26T04:15:07;2.00;;;1.13;;
5774;SDS011;2913;51.120;6.772;2024-02-26T04:17:36;2.83;;;1.27;;
5774;SDS011;2913;51.120;6.772;2024-02-26T04:20:05;2.78;;;1.10;;
5774;SDS011;2913;51.120;6.772;2024-02-26T04:22:37;2.95;;;1.10;;
5774;SDS011;2913;51.120;6.772;2024-02-26T04:25:05;2.75;;;1.30;;
5774;SDS011;2913;51.120;6.772;2024-02-26T04:27:33;1.50;;;0.90;;
5774;SDS011;2913;51.120;6.772;2024-02-26T04:29:59;6.22;;;1.30;;
5774;SDS011;2913;51.120;6.772;2024-02-26T04:32:25;4.15;;;1.58;;
5774;SDS011;2913;51.120;6.772;2024-02-26T04:34:50;2.38;;;1.42;;
5774;SDS011;2913;51.120;6.772;2024-02-26T04:37:18;5.25;;;1.88;;
5774;SDS011;2913;51.120;6.772;2024-02-26T04:39:46;3.75;;;1.55;;
5774;SDS011;2913;51.120;6.772;2024-02-26T04:42:12;2.83;;;1.50;;
5774;SDS011;2913;51.120;6.772;2024-02-26T04:44:37;3.42;;;1.60;;
5774;SDS011;2913;51.120;6.772;2024-02-26T04:47:03;2.75;;;1.50;;
5774;SDS011;2913;51.120;6.772;2024-02-26T04:49:29;2.53;;;1.52;;
5774;SDS011;2913;51.120;6.772;2024-02-26T04:51:54;6.07;;;1.60;;
5774;SDS011;2913;51.120;6.772;2024-02-26T04:54:20;2.08;;;1.00;;
5774;SDS011;2913;51.120;6.772;2024-02-26T04:56:46;2.45;;;1.60;;
5774;SDS011;2913;51.120;6.772;2024-02-26T04:59:12;2.20;;;1.60;;
5774;SDS011;2913;51.120;6.772;2024-02-26T05:01:39;6.63;;;2.15;;
5774;SDS011;2913;51.120;6.772;2024-02-26T05:04:04;2.30;;;1.40;;
5774;SDS011;2913;51.120;6.772;2024-02-26T05:06:30;3.40;;;1.80;;
5774;SDS011;2913;51.120;6.772;2024-02-26T05:08:58;4.40;;;1.80;;
5774;SDS011;2913;51.120;6.772;2024-02-26T05:11:23;1.40;;;0.93;;
5774;SDS011;2913;51.120;6.772;2024-02-26T05:13:51;2.45;;;1.50;;
5774;SDS011;2913;51.120;6.772;2024-02-26T05:16:20;2.63;;;1.38;;
5774;SDS011;2913;51.120;6.772;2024-02-26T05:18:49;1.80;;;1.30;;
5774;SDS011;2913;51.120;6.772;2024-02-26T05:21:17;3.25;;;1.70;;
5774;SDS011;2913;51.120;6.772;2024-02-26T05:23:45;7.30;;;1.80;;
5774;SDS011;2913;51.120;6.772;2024-02-26T05:26:11;5.30;;;1.73;;
5774;SDS011;2913;51.120;6.772;2024-02-26T05:28:49;4.18;;;2.00;;
5774;SDS011;2913;51.120;6.772;2024-02-26T05:31:15;4.05;;;1.60;;
5774;SDS011;2913;51.120;6.772;2024-02-26T05:33:43;5.35;;;2.17;;
5774;SDS011;2913;51.120;6.772;2024-02-26T05:36:11;5.07;;;2.08;;
5774;SDS011;2913;51.120;6.772;2024-02-26T05:38:43;8.43;;;2.00;;
5774;SDS011;2913;51.120;6.772;2024-02-26T05:41:11;4.82;;;1.50;;
5774;SDS011;2913;51.120;6.772;2024-02-26T05:43:40;3.92;;;2.20;;
5774;SDS011;2913;51.120;6.772;2024-02-26T05:46:05;3.55;;;1.70;;
5774;SDS011;2913;51.120;6.772;2024-02-26T05:48:33;5.53;;;2.42;;
5774;SDS011;2913;51.120;6.772;2024-02-26T05:50:59;4.65;;;1.98;;
5774;SDS011;2913;51.120;6.772;2024-02-26T05:53:28;3.53;;;2.00;;
5774;SDS011;2913;51.120;6.772;2024-02-26T05:55:53;5.07;;;2.17;;
5774;SDS011;2913;51.120;6.772;2024-02-26T05:58:19;3.92;;;2.10;;
5774;SDS011;2913;51.120;6.772;2024-02-26T06:00:44;7.90;;;2.63;;
5774;SDS011;2913;51.120;6.772;2024-02-26T06:03:15;8.25;;;2.83;;
5774;SDS011;2913;51.120;6.772;2024-02-26T06:05:40;5.82;;;2.30;;
5774;SDS011;2913;51.120;6.772;2024-02-26T06:08:07;5.70;;;2.03;;
5774;SDS011;2913;51.120;6.772;2024-02-26T06:10:35;6.03;;;2.58;;
5774;SDS011;2913;51.120;6.772;2024-02-26T06:13:00;5.75;;;2.60;;
5774;SDS011;2913;51.120;6.772;2024-02-26T06:15:26;6.78;;;2.55;;
5774;SDS011;2913;51.120;6.772;2024-02-26T06:17:52;5.72;;;2.88;;
5774;SDS011;2913;51.120;6.772;2024-02-26T06:20:17;4.10;;;2.40;;
5774;SDS011;2913;51.120;6.772;2024-02-26T06:22:43;3.40;;;2.08;;
5774;SDS011;2913;51.120;6.772;2024-02-26T06:25:09;4.13;;;2.10;;
5774;SDS011;2913;51.120;6.772;2024-02-26T06:27:37;9.95;;;3.08;;
5774;SDS011;2913;51.120;6.772;2024-02-26T06:30:05;5.57;;;2.78;;
5774;SDS011;2913;51.120;6.772;2024-02-26T06:32:32;7.45;;;2.60;;
5774;SDS011;2913;51.120;6.772;2024-02-26T06:34:57;3.70;;;2.25;;
5774;SDS011;2913;51.120;6.772;2024-02-26T06:37:23;5.07;;;2.80;;
5774;SDS011;2913;51.120;6.772;2024-02-26T06:39:54;11.70;;;3.40;;
5774;SDS011;2913;51.120;6.772;2024-02-26T06:42:22;9.80;;;2.85;;
5774;SDS011;2913;51.120;6.772;2024-02-26T06:44:47;6.10;;;2.50;;
5774;SDS011;2913;51.120;6.772;2024-02-26T06:47:13;9.13;;;2.75;;
5774;SDS011;2913;51.120;6.772;2024-02-26T06:49:41;6.93;;;2.85;;
5774;SDS011;2913;51.120;6.772;2024-02-26T06:52:09;4.40;;;2.25;;
5774;SDS011;2913;51.120;6.772;2024-02-26T06:54:35;5.43;;;2.80;;
5774;SDS011;2913;51.120;6.772;2024-02-26T06:57:03;6.60;;;3.00;;
5774;SDS011;2913;51.120;6.772;2024-02-26T06:59:31;8.52;;;3.40;;
5774;SDS011;2913;51.120;6.772;2024-02-26T07:01:57;6.53;;;3.42;;
5774;SDS011;2913;51.120;6.772;2024-02-26T07:04:25;5.30;;;3.08;;
5774;SDS011;2913;51.120;6.772;2024-02-26T07:06:51;6.43;;;2.83;;
5774;SDS011;2913;51.120;6.772;2024-02-26T07:09:19;7.25;;;3.63;;
5774;SDS011;2913;51.120;6.772;2024-02-26T07:11:44;9.60;;;3.47;;
5774;SDS011;2913;51.120;6.772;2024-02-26T07:14:12;9.27;;;3.70;;
5774;SDS011;2913;51.120;6.772;2024-02-26T07:16:43;13.63;;;3.42;;
5774;SDS011;2913;51.120;6.772;2024-02-26T07:19:08;9.00;;;3.00;;
5774;SDS011;2913;51.120;6.772;2024-02-26T07:21:34;5.88;;;2.60;;
5774;SDS011;2913;51.120;6.772;2024-02-26T07:23:59;12.20;;;4.90;;
5774;SDS011;2913;51.120;6.772;2024-02-26T07:26:25;10.52;;;3.63;;
5774;SDS011;2913;51.120;6.772;2024-02-26T07:28:55;6.63;;;4.20;;
5774;SDS011;2913;51.120;6.772;2024-02-26T07:31:25;9.55;;;3.95;;
5774;SDS011;2913;51.120;6.772;2024-02-26T07:33:50;11.85;;;3.65;;
5774;SDS011;2913;51.120;6.772;2024-02-26T07:36:16;12.07;;;3.22;;
5774;SDS011;2913;51.120;6.772;2024-02-26T07:38:42;9.98;;;4.45;;
5774;SDS011;2913;51.120;6.772;2024-02-26T07:41:08;6.88;;;3.47;;
5774;SDS011;2913;51.120;6.772;2024-02-26T07:43:36;11.75;;;4.13;;
5774;SDS011;2913;51.120;6.772;2024-02-26T07:46:02;10.70;;;4.57;;
5774;SDS011;2913;51.120;6.772;2024-02-26T07:48:30;7.43;;;3.58;;
5774;SDS011;2913;51.120;6.772;2024-02-26T07:50:55;9.15;;;3.78;;
5774;SDS011;2913;51.120;6.772;2024-02-26T07:53:21;8.52;;;3.90;;
5774;SDS011;2913;51.120;6.772;2024-02-26T07:55:47;8.07;;;3.50;;
5774;SDS011;2913;51.120;6.772;2024-02-26T07:58:13;11.13;;;4.30;;
5774;SDS011;2913;51.120;6.772;2024-02-26T08:00:41;10.27;;;4.35;;
5774;SDS011;2913;51.120;6.772;2024-02-26T08:03:06;6.60;;;3.83;;
5774;SDS011;2913;51.120;6.772;2024-02-26T08:05:32;9.73;;;4.78;;
5774;SDS011;2913;51.120;6.772;2024-02-26T08:07:59;13.32;;;4.47;;
5774;SDS011;2913;51.120;6.772;2024-02-26T08:10:24;11.43;;;4.32;;
5774;SDS011;2913;51.120;6.772;2024-02-26T08:12:50;15.68;;;4.07;;
5774;SDS011;2913;51.120;6.772;2024-02-26T08:15:16;10.27;;;4.07;;
5774;SDS011;2913;51.120;6.772;2024-02-26T08:17:43;7.80;;;3.00;;
5774;SDS011;2913;51.120;6.772;2024-02-26T08:20:09;14.13;;;5.43;;
5774;SDS011;2913;51.120;6.772;2024-02-26T08:22:35;12.77;;;4.80;;
5774;SDS011;2913;51.120;6.772;2024-02-26T08:25:06;11.52;;;3.60;;
5774;SDS011;2913;51.120;6.772;2024-02-26T08:27:34;8.20;;;4.07;;
5774;SDS011;2913;51.120;6.772;2024-02-26T08:29:59;9.15;;;4.35;;
5774;SDS011;2913;51.120;6.772;2024-02-26T08:32:25;7.80;;;3.08;;
5774;SDS011;2913;51.120;6.772;2024-02-26T08:34:53;10.02;;;2.88;;
5774;SDS011;2913;51.120;6.772;2024-02-26T08:37:19;7.13;;;3.22;;
5774;SDS011;2913;51.120;6.772;2024-02-26T08:39:44;12.43;;;3.08;;
5774;SDS011;2913;51.120;6.772;2024-02-26T08:42:12;8.63;;;3.65;;
5774;SDS011;2913;51.120;6.772;2024-02-26T08:44:38;5.60;;;2.85;;
5774;SDS011;2913;51.120;6.772;2024-02-26T08:47:06;7.93;;;3.25;;
5774;SDS011;2913;51.120;6.772;2024-02-26T08:49:34;10.15;;;3.38;;
5774;SDS011;2913;51.120;6.772;2024-02-26T08:52:02;9.73;;;3.40;;
5774;SDS011;2913;51.120;6.772;2024-02-26T08:54:29;8.52;;;3.40;;
5774;SDS011;2913;51.120;6.772;2024-02-26T08:56:56;10.75;;;4.55;;
5774;SDS011;2913;51.120;6.772;2024-02-26T08:59:22;8.02;;;3.90;;
5774;SDS011;2913;51.120;6.772;2024-02-26T09:01:50;10.18;;;3.70;;
5774;SDS011;2913;51.120;6.772;2024-02-26T09:04:15;6.63;;;3.20;;
5774;SDS011;2913;51.120;6.772;2024-02-26T09:06:41;8.90;;;3.13;;
5774;SDS011;2913;51.120;6.772;2024-02-26T09:09:07;10.13;;;4.10;;
5774;SDS011;2913;51.120;6.772;2024-02-26T09:11:33;23.95;;;3.20;;
5774;SDS011;2913;51.120;6.772;2024-02-26T09:13:58;9.55;;;3.53;;
5774;SDS011;2913;51.120;6.772;2024-02-26T09:16:24;12.82;;;3.88;;
5774;SDS011;2913;51.120;6.772;2024-02-26T09:18:52;6.38;;;2.67;;
5774;SDS011;2913;51.120;6.772;2024-02-26T09:21:17;7.85;;;3.15;;
5774;SDS011;2913;51.120;6.772;2024-02-26T09:23:48;9.45;;;3.50;;
5774;SDS011;2913;51.120;6.772;2024-02-26T09:26:19;7.85;;;3.10;;
5774;SDS011;2913;51.120;6.772;2024-02-26T09:28:49;8.43;;;2.75;;
5774;SDS011;2913;51.120;6.772;2024-02-26T09:31:15;7.90;;;3.55;;
5774;SDS011;2913;51.120;6.772;2024-02-26T09:33:45;8.02;;;3.30;;
5774;SDS011;2913;51.120;6.772;2024-02-26T09:36:11;9.85;;;3.20;;
5774;SDS011;2913;51.120;6.772;2024-02-26T09:38:37;6.32;;;2.72;;
5774;SDS011;2913;51.120;6.772;2024-02-26T09:41:05;7.22;;;3.10;;
5774;SDS011;2913;51.120;6.772;2024-02-26T09:43:36;6.05;;;2.60;;
5774;SDS011;2913;51.120;6.772;2024-02-26T09:46:04;8.80;;;3.10;;
5774;SDS011;2913;51.120;6.772;2024-02-26T09:48:31;10.57;;;3.53;;
5774;SDS011;2913;51.120;6.772;2024-02-26T09:51:06;5.10;;;2.78;;
5774;SDS011;2913;51.120;6.772;2024-02-26T09:53:32;14.70;;;3.30;;
5774;SDS011;2913;51.120;6.772;2024-02-26T09:55:58;11.27;;;4.43;;
5774;SDS011;2913;51.120;6.772;2024-02-26T09:58:24;6.78;;;3.13;;
5774;SDS011;2913;51.120;6.772;2024-02-26T10:00:58;6.43;;;2.25;;
5774;SDS011;2913;51.120;6.772;2024-02-26T10:03:31;9.90;;;3.78;;
5774;SDS011;2913;51.120;6.772;2024-02-26T10:06:07;5.70;;;3.05;;
5774;SDS011;2913;51.120;6.772;2024-02-26T10:08:33;11.13;;;3.40;;
5774;SDS011;2913;51.120;6.772;2024-02-26T10:11:00;8.32;;;3.03;;
5774;SDS011;2913;51.120;6.772;2024-02-26T10:13:26;6.82;;;2.95;;
5774;SDS011;2913;51.120;6.772;2024-02-26T10:15:51;5.68;;;2.85;;
5774;SDS011;2913;51.120;6.772;2024-02-26T10:18:17;9.25;;;3.22;;
5774;SDS011;2913;51.120;6.772;2024-02-26T10:20:58;6.38;;;2.40;;
5774;SDS011;2913;51.120;6.772;2024-02-26T10:23:27;6.50;;;2.47;;
5774;SDS011;2913;51.120;6.772;2024-02-26T10:25:53;8.95;;;2.75;;
5774;SDS011;2913;51.120;6.772;2024-02-26T10:28:20;9.18;;;3.10;;
5774;SDS011;2913;51.120;6.772;2024-02-26T10:30:45;8.07;;;3.60;;
5774;SDS011;2913;51.120;6.772;2024-02-26T10:33:13;11.57;;;3.30;;
5774;SDS011;2913;51.120;6.772;2024-02-26T10:35:40;7.07;;;3.00;;
5774;SDS011;2913;51.120;6.772;2024-02-26T10:38:10;8.20;;;3.60;;
5774;SDS011;2913;51.120;6.772;2024-02-26T10:40:36;6.60;;;2.55;;
5774;SDS011;2913;51.120;6.772;2024-02-26T10:43:04;6.05;;;2.83;;
5774;SDS011;2913;51.120;6.772;2024-02-26T10:45:30;10.70;;;3.25;;
5774;SDS011;2913;51.120;6.772;2024-02-26T10:47:57;5.82;;;3.17;;
5774;SDS011;2913;51.120;6.772;2024-02-26T10:50:23;8.07;;;3.47;;
5774;SDS011;2913;51.120;6.772;2024-02-26T10:52:52;8.88;;;3.38;;
5774;SDS011;2913;51.120;6.772;2024-02-26T10:55:20;7.65;;;3.50;;
5774;SDS011;2913;51.120;6.772;2024-02-26T10:57:50;10.07;;;3.85;;
5774;SDS011;2913;51.120;6.772;2024-02-26T11:00:20;9.50;;;4.45;;
5774;SDS011;2913;51.120;6.772;2024-02-26T11:02:49;10.20;;;4.60;;
5774;SDS011;2913;51.120;6.772;2024-02-26T11:05:18;14.00;;;5.75;;
5774;SDS011;2913;51.120;6.772;2024-02-26T11:07:45;8.77;;;4.28;;
5774;SDS011;2913;51.120;6.772;2024-02-26T11:10:15;11.88;;;3.78;;
5774;SDS011;2913;51.120;6.772;2024-02-26T11:12:41;6.93;;;3.35;;
5774;SDS011;2913;51.120;6.772;2024-02-26T11:15:10;9.40;;;3.28;;
5774;SDS011;2913;51.120;6.772;2024-02-26T11:17:36;10.43;;;4.05;;
5774;SDS011;2913;51.120;6.772;2024-02-26T11:20:09;10.38;;;3.90;;
5774;SDS011;2913;51.120;6.772;2024-02-26T11:22:36;14.48;;;3.67;;
5774;SDS011;2913;51.120;6.772;2024-02-26T11:25:01;5.65;;;3.30;;
5774;SDS011;2913;51.120;6.772;2024-02-26T11:27:32;14.77;;;3.50;;
5774;SDS011;2913;51.120;6.772;2024-02-26T11:30:10;10.13;;;3.33;;
5774;SDS011;2913;51.120;6.772;2024-02-26T11:32:38;10.40;;;3.13;;
5774;SDS011;2913;51.120;6.772;2024-02-26T11:35:08;10.88;;;4.40;;
5774;SDS011;2913;51.120;6.772;2024-02-26T11:37:35;9.35;;;4.82;;
5774;SDS011;2913;51.120;6.772;2024-02-26T11:40:01;12.30;;;4.28;;
5774;SDS011;2913;51.120;6.772;2024-02-26T11:42:27;21.33;;;4.88;;
5774;SDS011;2913;51.120;6.772;2024-02-26T11:44:54;10.48;;;4.68;;
5774;SDS011;2913;51.120;6.772;2024-02-26T11:47:25;12.23;;;4.15;;
5774;SDS011;2913;51.120;6.772;2024-02-26T11:49:52;15.05;;;5.95;;
5774;SDS011;2913;51.120;6.772;2024-02-26T11:52:18;13.10;;;5.93;;
5774;SDS011;2913;51.120;6.772;2024-02-26T11:59:55;14.02;;;6.13;;
5774;SDS011;2913;51.120;6.772;2024-02-26T12:05:26;12.07;;;5.15;;
5774;SDS011;2913;51.120;6.772;2024-02-26T12:08:02;8.52;;;4.43;;
5774;SDS011;2913;51.120;6.772;2024-02-26T12:10:33;22.20;;;5.72;;
5774;SDS011;2913;51.120;6.772;2024-02-26T12:15:45;12.02;;;5.95;;
5774;SDS011;2913;51.120;6.772;2024-02-26T12:18:20;16.50;;;6.18;;
5774;SDS011;2913;51.120;6.772;2024-02-26T12:20:47;14.63;;;5.53;;
5774;SDS011;2913;51.120;6.772;2024-02-26T12:23:31;9.98;;;5.28;;
5774;SDS011;2913;51.120;6.772;2024-02-26T12:25:59;12.65;;;6.38;;
5774;SDS011;2913;51.120;6.772;2024-02-26T12:28:29;14.63;;;5.72;;
5774;SDS011;2913;51.120;6.772;2024-02-26T12:30:55;16.00;;;5.53;;
5774;SDS011;2913;51.120;6.772;2024-02-26T12:33:21;12.93;;;6.55;;
5774;SDS011;2913;51.120;6.772;2024-02-26T12:35:47;14.07;;;6.43;;
5774;SDS011;2913;51.120;6.772;2024-02-26T12:38:14;11.25;;;5.40;;
5774;SDS011;2913;51.120;6.772;2024-02-26T12:40:40;18.27;;;6.13;;
5774;SDS011;2913;51.120;6.772;2024-02-26T12:43:13;18.30;;;6.93;;
5774;SDS011;2913;51.120;6.772;2024-02-26T12:45:42;15.25;;;5.90;;
5774;SDS011;2913;51.120;6.772;2024-02-26T12:48:14;12.98;;;6.22;;
5774;SDS011;2913;51.120;6.772;2024-02-26T12:50:45;16.10;;;7.22;;
5774;SDS011;2913;51.120;6.772;2024-02-26T12:53:12;18.75;;;7.53;;
5774;SDS011;2913;51.120;6.772;2024-02-26T12:55:42;12.10;;;6.38;;
5774;SDS011;2913;51.120;6.772;2024-02-26T12:58:08;12.60;;;6.75;;
5774;SDS011;2913;51.120;6.772;2024-02-26T13:00:36;15.35;;;6.68;;
5774;SDS011;2913;51.120;6.772;2024-02-26T13:03:05;21.58;;;7.57;;
5774;SDS011;2913;51.120;6.772;2024-02-26T13:05:31;18.13;;;7.55;;
5774;SDS011;2913;51.120;6.772;2024-02-26T13:07:58;18.42;;;8.45;;
5774;SDS011;2913;51.120;6.772;2024-02-26T13:10:26;22.65;;;9.20;;
5774;SDS011;2913;51.120;6.772;2024-02-26T13:12:51;25.17;;;9.85;;
5774;SDS011;2913;51.120;6.772;2024-02-26T13:15:24;23.67;;;8.35;;
5774;SDS011;2913;51.120;6.772;2024-02-26T13:17:50;19.60;;;8.15;;
5774;SDS011;2913;51.120;6.772;2024-02-26T13:23:12;21.95;;;10.13;;
5774;SDS011;2913;51.120;6.772;2024-02-26T13:25:38;23.30;;;10.13;;
5774;SDS011;2913;51.120;6.772;2024-02-26T13:28:08;17.48;;;7.82;;
5774;SDS011;2913;51.120;6.772;2024-02-26T13:30:43;22.88;;;10.27;;
5774;SDS011;2913;51.120;6.772;2024-02-26T13:33:25;19.63;;;10.50;;
5774;SDS011;2913;51.120;6.772;2024-02-26T13:35:56;25.45;;;9.15;;
5774;SDS011;2913;51.120;6.772;2024-02-26T13:38:22;20.98;;;9.18;;
5774;SDS011;2913;51.120;6.772;2024-02-26T13:40:48;15.65;;;7.78;;
5774;SDS011;2913;51.120;6.772;2024-02-26T13:43:15;16.08;;;7.63;;
5774;SDS011;2913;51.120;6.772;2024-02-26T13:45:42;22.27;;;9.45;;
5774;SDS011;2913;51.120;6.772;2024-02-26T13:48:11;22.10;;;10.27;;
5774;SDS011;2913;51.120;6.772;2024-02-26T13:50:42;19.52;;;7.35;;
5774;SDS011;2913;51.120;6.772;2024-02-26T13:53:11;26.95;;;9.98;;
5774;SDS011;2913;51.120;6.772;2024-02-26T13:55:40;15.35;;;6.93;;
5774;SDS011;2913;51.120;6.772;2024-02-26T13:58:11;22.75;;;10.25;;
5774;SDS011;2913;51.120;6.772;2024-02-26T14:00:38;18.23;;;9.15;;
5774;SDS011;2913;51.120;6.772;2024-02-26T14:03:08;30.38;;;11.70;;
5774;SDS011;2913;51.120;6.772;2024-02-26T14:05:39;22.77;;;9.95;;
5774;SDS011;2913;51.120;6.772;2024-02-26T14:08:08;19.73;;;9.27;;
5774;SDS011;2913;51.120;6.772;2024-02-26T14:10:34;20.65;;;11.18;;
5774;SDS011;2913;51.120;6.772;2024-02-26T14:13:02;22.00;;;12.13;;
5774;SDS011;2913;51.120;6.772;2024-02-26T14:15:30;22.75;;;8.35;;
5774;SDS011;2913;51.120;6.772;2024-02-26T14:17:56;21.20;;;9.93;;
5774;SDS011;2913;51.120;6.772;2024-02-26T14:20:22;22.73;;;8.95;;
5774;SDS011;2913;51.120;6.772;2024-02-26T14:22:51;19.42;;;9.98;;
5774;SDS011;2913;51.120;6.772;2024-02-26T14:25:18;20.80;;;10.52;;
5774;SDS011;2913;51.120;6.772;2024-02-26T14:27:45;16.08;;;8.75;;
5774;SDS011;2913;51.120;6.772;2024-02-26T14:30:14;15.40;;;8.98;;
5774;SDS011;2913;51.120;6.772;2024-02-26T14:32:40;17.00;;;9.43;;
5774;SDS011;2913;51.120;6.772;2024-02-26T14:35:06;16.98;;;9.45;;
5774;SDS011;2913;51.120;6.772;2024-02-26T14:37:38;20.08;;;9.27;;
5774;SDS011;2913;51.120;6.772;2024-02-26T14:40:04;19.65;;;9.95;;
5774;SDS011;2913;51.120;6.772;2024-02-26T14:42:33;17.40;;;8.93;;
5774;SDS011;2913;51.120;6.772;2024-02-26T14:44:59;19.05;;;10.02;;
5774;SDS011;2913;51.120;6.772;2024-02-26T14:47:24;16.63;;;9.55;;
5774;SDS011;2913;51.120;6.772;2024-02-26T14:49:53;17.77;;;9.20;;
5774;SDS011;2913;51.120;6.772;2024-02-26T14:52:19;17.88;;;9.10;;
5774;SDS011;2913;51.120;6.772;2024-02-26T14:54:49;15.48;;;8.40;;
5774;SDS011;2913;51.120;6.772;2024-02-26T14:57:20;17.13;;;9.27;;
5774;SDS011;2913;51.120;6.772;2024-02-26T14:59:48;18.58;;;8.27;;
5774;SDS011;2913;51.120;6.772;2024-02-26T15:02:15;18.42;;;8.68;;
5774;SDS011;2913;51.120;6.772;2024-02-26T15:04:41;15.10;;;8.02;;
5774;SDS011;2913;51.120;6.772;2024-02-26T15:07:09;11.80;;;6.85;;
5774;SDS011;2913;51.120;6.772;2024-02-26T15:09:36;15.93;;;8.23;;
5774;SDS011;2913;51.120;6.772;2024-02-26T15:12:03;13.68;;;7.70;;
5774;SDS011;2913;51.120;6.772;2024-02-26T15:14:31;12.25;;;6.07;;
5774;SDS011;2913;51.120;6.772;2024-02-26T15:16:57;14.88;;;7.95;;
5774;SDS011;2913;51.120;6.772;2024-02-26T15:19:23;16.10;;;7.90;;
5774;SDS011;2913;51.120;6.772;2024-02-26T15:21:48;24.83;;;12.32;;
5774;SDS011;2913;51.120;6.772;2024-02-26T15:24:14;24.67;;;13.05;;